Time;durP1;ratioP1;P1;durP2;ratioP2;P2;SDS_P1;SDS_P2;PMS_P1;PMS_P2;Temp;Humidity;BMP_temperature;BMP_pressure;BME280_temperature;BME280_humidity;BME280_pressure;Samples;Min_cycle;Max_cycle;Signal;HPM_P1;HPM_P2
2023/09/10 00:00:41;;;;;;;4.85;3.10;;;;;;;20.93;46.17;99987.00;4839739;29;20062;-43
2023/09/10 00:03:07;;;;;;;5.13;3.30;;;;;;;20.96;46.12;99989.97;4839791;29;20030;-42
2023/09/10 00:05:32;;;;;;;4.45;3.20;;;;;;;20.94;45.90;99994.00;4840027;29;20056;-43
2023/09/10 00:08:00;;;;;;;5.32;3.00;;;;;;;20.92;45.69;99999.69;4839727;29;20101;-45
2023/09/10 00:10:26;;;;;;;6.78;3.10;;;;;;;20.98;45.73;99995.94;4839916;29;20038;-42
2023/09/10 00:12:51;;;;;;;5.47;3.53;;;;;;;20.80;46.06;99996.41;4839949;29;20116;-43
2023/09/10 00:15:17;;;;;;;4.95;3.20;;;;;;;20.79;46.38;100002.88;4855974;29;20046;-44
2023/09/10 00:17:42;;;;;;;6.32;3.35;;;;;;;20.73;46.62;99993.13;4858290;29;20108;-39
2023/09/10 00:20:09;;;;;;;5.63;3.63;;;;;;;20.69;46.79;99999.09;4858316;29;20069;-40
2023/09/10 00:22:35;;;;;;;6.72;3.33;;;;;;;20.75;46.55;99993.69;4861898;29;20029;-39
2023/09/10 00:25:00;;;;;;;4.93;3.50;;;;;;;20.57;47.15;99990.34;4861572;29;20041;-39
2023/09/10 00:27:25;;;;;;;6.18;3.40;;;;;;;20.71;46.67;99996.09;4861481;29;20659;-39
2023/09/10 00:29:51;;;;;;;4.55;3.08;;;;;;;20.69;47.63;99992.84;4861613;29;20036;-40
2023/09/10 00:32:16;;;;;;;6.35;3.20;;;;;;;20.65;47.88;99997.97;4861241;29;20090;-41
2023/09/10 00:34:42;;;;;;;6.18;3.50;;;;;;;20.67;47.74;99997.72;4861404;29;20025;-38
2023/09/10 00:37:07;;;;;;;5.03;3.40;;;;;;;20.70;47.68;99989.06;4861384;29;20396;-38
2023/09/10 00:39:33;;;;;;;5.78;3.40;;;;;;;20.68;48.09;99992.03;4861668;29;20022;-40
2023/09/10 00:41:58;;;;;;;7.68;3.20;;;;;;;20.77;47.49;99996.94;4861818;29;20033;-39
2023/09/10 00:44:24;;;;;;;6.65;3.42;;;;;;;20.77;47.46;99988.81;4861500;29;20021;-40
2023/09/10 00:46:51;;;;;;;6.40;3.30;;;;;;;20.63;48.18;99986.59;4861621;29;20041;-39
2023/09/10 00:49:17;;;;;;;5.50;3.38;;;;;;;20.66;47.86;99996.91;4861267;29;20025;-40
2023/09/10 00:51:43;;;;;;;5.85;3.38;;;;;;;20.65;47.93;99994.47;4860903;29;20018;-40
2023/09/10 00:54:10;;;;;;;5.45;3.00;;;;;;;20.74;46.81;99992.06;4861453;29;20033;-40
2023/09/10 00:56:35;;;;;;;4.15;2.75;;;;;;;20.81;46.15;99982.63;4861181;29;20521;-39
2023/09/10 00:59:01;;;;;;;5.43;3.03;;;;;;;20.58;46.90;99989.28;4860399;29;20045;-39
2023/09/10 01:01:27;;;;;;;5.10;3.10;;;;;;;20.41;47.12;99983.22;4860550;29;20029;-40
2023/09/10 01:03:53;;;;;;;6.20;3.05;;;;;;;20.42;47.46;99990.25;4860674;29;20470;-40
2023/09/10 01:06:21;;;;;;;4.40;2.80;;;;;;;20.54;46.85;99990.06;4860737;29;20029;-39
2023/09/10 01:08:47;;;;;;;3.13;2.65;;;;;;;20.56;46.97;99988.72;4860571;29;20021;-40
2023/09/10 01:11:32;;;;;;;3.88;2.72;;;;;;;20.43;47.03;99981.91;4860859;29;20022;-40
2023/09/10 01:14:06;;;;;;;5.45;2.97;;;;;;;20.12;47.67;99989.00;4859975;29;20575;-40
2023/09/10 01:16:43;;;;;;;4.22;2.83;;;;;;;20.20;47.46;99985.84;4859955;29;20443;-40
2023/09/10 01:19:48;;;;;;;4.50;3.00;;;;;;;20.34;47.25;99985.38;4859951;29;20029;-39
2023/09/10 01:22:43;;;;;;;4.47;2.60;;;;;;;20.34;47.64;99979.97;4860182;29;20049;-39
2023/09/10 01:25:09;;;;;;;3.30;2.63;;;;;;;20.29;47.24;99970.72;4860177;29;20191;-39
2023/09/10 01:27:34;;;;;;;4.32;2.67;;;;;;;20.30;46.96;99975.06;4859257;29;20017;-40
2023/09/10 01:30:00;;;;;;;5.55;2.67;;;;;;;20.12;47.39;99975.50;4859901;29;20089;-40
2023/09/10 01:32:56;;;;;;;4.35;2.65;;;;;;;20.36;47.04;99975.09;4860334;29;20037;-39
2023/09/10 01:36:07;;;;;;;3.33;2.50;;;;;;;20.06;47.51;99968.44;4859646;29;20116;-40
2023/09/10 01:38:43;;;;;;;5.13;2.58;;;;;;;20.19;46.90;99976.09;4803260;29;20035;-40
2023/09/10 01:41:19;;;;;;;4.30;2.20;;;;;;;19.73;46.47;99938.00;4853291;29;20134;-40
2023/09/10 01:43:46;;;;;;;6.38;2.15;;;;;;;19.85;46.48;99971.00;4860035;29;20026;-40
2023/09/10 01:46:12;;;;;;;5.25;2.47;;;;;;;19.54;47.33;99975.34;4860133;29;20044;-40
2023/09/10 01:48:39;;;;;;;3.55;2.40;;;;;;;19.44;47.68;99972.53;4850602;29;20026;-40
2023/09/10 01:51:04;;;;;;;3.83;2.45;;;;;;;19.44;47.52;99972.53;4841691;29;20030;-39
2023/09/10 01:53:30;;;;;;;3.80;2.50;;;;;;;18.81;49.28;99969.47;4841790;29;20519;-38
2023/09/10 01:55:55;;;;;;;4.53;2.50;;;;;;;18.56;49.98;99965.38;4841855;29;20034;-39
2023/09/10 01:58:21;;;;;;;3.42;2.40;;;;;;;18.65;49.87;99965.75;4841699;29;20101;-40
2023/09/10 02:00:46;;;;;;;4.03;2.60;;;;;;;18.59;50.48;99962.19;4841606;29;20069;-39
2023/09/10 02:03:12;;;;;;;3.63;2.33;;;;;;;18.54;50.47;99964.81;4841710;29;20022;-41
2023/09/10 02:05:37;;;;;;;4.18;2.42;;;;;;;18.68;49.59;99965.28;4841540;29;20535;-40
2023/09/10 02:08:04;;;;;;;3.20;2.42;;;;;;;18.75;49.35;99971.25;4841674;29;20033;-40
2023/09/10 02:10:32;;;;;;;2.97;2.22;;;;;;;18.78;48.79;99967.28;4841458;29;20022;-40
2023/09/10 02:12:57;;;;;;;5.15;2.30;;;;;;;18.85;47.89;99966.03;4841458;29;20424;-40
2023/09/10 02:15:23;;;;;;;4.28;2.22;;;;;;;18.89;48.00;99972.56;4841449;29;20113;-40
2023/09/10 02:17:48;;;;;;;3.30;2.15;;;;;;;18.67;48.61;99974.41;4853701;29;20089;-39
2023/09/10 02:20:14;;;;;;;3.15;2.00;;;;;;;18.64;49.22;99974.91;4859136;29;20033;-38
2023/09/10 02:22:40;;;;;;;3.83;2.28;;;;;;;18.66;49.47;99975.50;4859038;29;20092;-39
2023/09/10 02:25:06;;;;;;;4.93;2.47;;;;;;;18.65;49.60;99977.34;4865625;29;20494;-42
2023/09/10 02:27:32;;;;;;;3.33;2.25;;;;;;;18.60;50.13;99977.31;4859707;29;20055;-38
2023/09/10 02:29:58;;;;;;;3.15;2.10;;;;;;;18.47;50.24;99977.69;4859098;29;20073;-39
2023/09/10 02:32:25;;;;;;;3.58;2.20;;;;;;;18.57;49.68;99988.59;4859105;29;20036;-39
2023/09/10 02:34:53;;;;;;;2.45;2.00;;;;;;;19.04;48.29;99979.16;4859504;29;20036;-39
2023/09/10 02:37:19;;;;;;;3.10;2.25;;;;;;;19.27;48.13;99984.28;4859000;29;20193;-39
2023/09/10 02:39:44;;;;;;;4.03;2.28;;;;;;;19.48;47.52;99992.56;4859074;29;20144;-39
2023/09/10 02:42:10;;;;;;;3.35;2.08;;;;;;;19.52;47.27;99993.69;4859323;29;20044;-39
2023/09/10 02:44:35;;;;;;;4.45;2.10;;;;;;;19.60;46.73;99987.00;4859037;29;20443;-39
2023/09/10 02:47:00;;;;;;;3.17;2.20;;;;;;;19.66;46.29;99984.06;4859177;29;20029;-40
2023/09/10 02:49:26;;;;;;;4.07;2.30;;;;;;;19.57;46.07;99985.59;4858754;29;20346;-40
2023/09/10 02:51:51;;;;;;;3.10;2.30;;;;;;;19.07;47.23;99984.88;4858899;29;20029;-39
2023/09/10 02:54:17;;;;;;;3.17;2.22;;;;;;;19.13;47.35;99980.34;4858861;29;20048;-41
2023/09/10 02:56:42;;;;;;;4.90;2.28;;;;;;;19.28;47.57;99983.19;4859445;29;20157;-40
2023/09/10 02:59:18;;;;;;;3.63;2.00;;;;;;;19.10;47.64;99964.69;4857939;29;20458;-40
2023/09/10 03:01:44;;;;;;;4.13;2.15;;;;;;;19.32;47.63;99973.53;4841583;29;20033;-39
2023/09/10 03:04:09;;;;;;;2.60;2.30;;;;;;;19.47;47.47;99975.53;4841141;29;20026;-39
2023/09/10 03:06:35;;;;;;;2.78;2.08;;;;;;;19.62;46.99;99982.94;4840394;29;20390;-39
2023/09/10 03:09:00;;;;;;;4.75;2.28;;;;;;;19.66;46.85;99985.94;4840907;29;20061;-40
2023/09/10 03:11:25;;;;;;;5.75;2.47;;;;;;;19.51;47.51;99987.47;4840347;29;20093;-39
2023/09/10 03:13:51;;;;;;;5.43;2.30;;;;;;;19.40;47.41;99984.91;4840675;29;20038;-40
2023/09/10 03:16:16;;;;;;;3.38;2.47;;;;;;;19.30;47.79;99986.44;4840321;29;20030;-40
2023/09/10 03:18:41;;;;;;;4.90;2.50;;;;;;;19.04;48.42;99988.09;4840405;29;20038;-41
2023/09/10 03:21:07;;;;;;;4.35;2.33;;;;;;;19.17;48.30;99986.03;4840298;29;20387;-39
2023/09/10 03:23:32;;;;;;;3.00;2.42;;;;;;;19.06;48.49;99991.34;4839201;29;20034;-39
2023/09/10 03:25:58;;;;;;;3.80;2.50;;;;;;;19.27;48.04;99989.66;4840154;29;20037;-39
2023/09/10 03:28:23;;;;;;;3.42;2.20;;;;;;;18.97;48.35;99992.84;4840007;29;20034;-39
2023/09/10 03:30:48;;;;;;;7.40;2.55;;;;;;;18.95;48.45;99995.00;4853566;29;20045;-39
2023/09/10 03:33:14;;;;;;;3.17;2.45;;;;;;;18.77;48.78;99977.22;4839637;29;20117;-39
2023/09/10 03:35:39;;;;;;;3.50;2.40;;;;;;;18.44;49.76;99995.16;4839927;29;20030;-39
2023/09/10 03:38:04;;;;;;;3.22;2.22;;;;;;;18.53;49.19;99993.66;4840109;29;20026;-40
2023/09/10 03:40:30;;;;;;;3.17;2.35;;;;;;;18.16;50.19;99988.84;4839788;29;20112;-40
2023/09/10 03:42:56;;;;;;;4.55;2.30;;;;;;;17.79;50.63;99993.91;4840224;29;20030;-40
2023/09/10 03:45:22;;;;;;;3.17;2.42;;;;;;;18.04;49.93;99990.81;4840264;29;20410;-40
2023/09/10 03:47:47;;;;;;;4.70;2.45;;;;;;;18.98;60.47;99994.47;4840036;29;20114;-40
2023/09/10 03:50:13;;;;;;;2.95;2.13;;;;;;;18.82;48.63;99980.00;4839777;29;20098;-40
2023/09/10 03:52:39;;;;;;;3.38;2.20;;;;;;;18.62;48.66;99994.03;4839764;29;20364;-40
2023/09/10 03:55:05;;;;;;;3.85;2.13;;;;;;;18.93;47.48;99989.03;4839148;29;20030;-40
2023/09/10 03:57:30;;;;;;;3.03;2.20;;;;;;;18.35;48.42;99985.84;4843919;29;20042;-39
2023/09/10 03:59:55;;;;;;;2.88;2.20;;;;;;;18.28;48.66;99988.75;4843488;29;20058;-39
2023/09/10 04:02:21;;;;;;;3.30;2.20;;;;;;;18.48;48.12;99988.19;4844000;29;20066;-40
2023/09/10 04:04:46;;;;;;;4.40;2.30;;;;;;;18.42;47.89;99996.47;4843857;29;20113;-39
2023/09/10 04:07:12;;;;;;;2.40;2.17;;;;;;;18.19;48.76;99995.63;4843734;29;20030;-40
2023/09/10 04:09:37;;;;;;;8.63;2.45;;;;;;;18.47;47.95;99997.34;4843645;29;20038;-40
2023/09/10 04:12:03;;;;;;;3.70;2.20;;;;;;;18.81;47.06;100001.81;4843036;29;20106;-39
2023/09/10 04:14:28;;;;;;;3.03;2.20;;;;;;;18.93;47.10;99995.25;4843349;29;20092;-39
2023/09/10 04:16:54;;;;;;;3.17;2.17;;;;;;;19.13;46.75;100010.84;4843428;29;20066;-39
2023/09/10 04:19:19;;;;;;;4.72;2.40;;;;;;;19.29;46.73;100011.00;4843242;29;20112;-39
2023/09/10 04:21:45;;;;;;;4.38;2.30;;;;;;;19.39;46.38;100012.97;4843586;29;20030;-39
2023/09/10 04:24:10;;;;;;;5.22;2.60;;;;;;;19.34;46.40;100009.16;4843438;29;20120;-40
2023/09/10 04:26:35;;;;;;;5.43;2.25;;;;;;;19.45;46.44;100015.47;4843474;29;20117;-39
2023/09/10 04:29:01;;;;;;;4.80;2.90;;;;;;;19.66;45.46;100018.34;4843523;29;20042;-39
2023/09/10 04:31:27;;;;;;;4.20;2.70;;;;;;;19.89;45.51;100022.63;4847475;29;20069;-40
2023/09/10 04:33:52;;;;;;;3.13;2.20;;;;;;;20.04;45.31;100021.91;4862019;29;20033;-40
2023/09/10 04:36:17;;;;;;;4.93;2.30;;;;;;;20.35;44.54;100022.13;4861662;29;20121;-39
2023/09/10 04:38:43;;;;;;;3.65;2.20;;;;;;;20.84;43.31;100019.94;4861681;29;20036;-39
2023/09/10 04:41:08;;;;;;;4.55;2.30;;;;;;;20.89;43.18;100003.75;4861197;29;20492;-39
2023/09/10 04:43:34;;;;;;;3.65;2.35;;;;;;;21.32;43.42;100017.09;4861824;29;20067;-39
2023/09/10 04:45:59;;;;;;;3.05;2.00;;;;;;;21.69;42.74;100013.38;4848527;29;20041;-40
2023/09/10 04:48:24;;;;;;;4.53;2.42;;;;;;;21.95;42.50;100025.03;4855452;29;20112;-39
2023/09/10 04:50:50;;;;;;;3.83;2.47;;;;;;;21.99;41.73;100022.56;4861438;29;20034;-39
2023/09/10 04:53:16;;;;;;;3.70;2.33;;;;;;;22.13;41.54;100026.38;4861810;29;20037;-39
2023/09/10 04:55:42;;;;;;;18.42;12.88;;;;;;;21.65;42.48;100018.53;4861519;29;20048;-39
2023/09/10 04:58:08;;;;;;;3.88;2.80;;;;;;;21.38;43.52;100018.75;4861278;29;20477;-39
2023/09/10 05:00:33;;;;;;;3.88;2.42;;;;;;;21.06;44.03;100011.66;4861200;29;20481;-41
2023/09/10 05:02:58;;;;;;;3.15;2.20;;;;;;;21.04;43.60;100015.72;4861525;29;20048;-39
2023/09/10 05:05:24;;;;;;;3.70;2.80;;;;;;;21.20;44.43;100016.53;4861261;29;20510;-39
2023/09/10 05:07:49;;;;;;;3.75;2.58;;;;;;;21.45;43.24;100018.50;4857420;29;20502;-40
2023/09/10 05:10:15;;;;;;;5.55;3.22;;;;;;;21.59;43.13;100016.91;4843058;29;20041;-40
2023/09/10 05:12:41;;;;;;;4.25;2.70;;;;;;;21.75;42.79;100011.50;4847174;29;20065;-39
2023/09/10 05:15:07;;;;;;;9.65;5.07;;;;;;;22.63;44.69;100021.13;4861100;29;20391;-41
2023/09/10 05:17:32;;;;;;;6.45;5.07;;;;;;;22.69;41.30;100022.72;4855811;29;20029;-39
2023/09/10 05:19:57;;;;;;;17.23;11.35;;;;;;;22.58;41.59;100019.25;4858366;29;20048;-39
2023/09/10 05:22:23;;;;;;;13.00;9.55;;;;;;;22.70;40.99;100007.28;4861136;29;20033;-39
2023/09/10 05:24:48;;;;;;;3.72;2.80;;;;;;;23.03;40.14;100012.00;4860597;29;20084;-40
2023/09/10 05:27:14;;;;;;;4.40;2.50;;;;;;;22.95;40.12;100006.34;4860990;29;20025;-39
2023/09/10 05:29:39;;;;;;;3.40;2.30;;;;;;;23.20;39.48;100010.84;4860734;29;20036;-39
2023/09/10 05:32:05;;;;;;;5.55;2.33;;;;;;;23.36;38.75;100009.66;4860439;29;20032;-40
2023/09/10 05:34:30;;;;;;;4.10;2.40;;;;;;;23.56;39.01;100021.44;4860917;29;20033;-40
2023/09/10 05:36:55;;;;;;;3.28;2.25;;;;;;;23.97;38.37;100015.69;4860838;29;20426;-41
2023/09/10 05:39:21;;;;;;;6.22;2.42;;;;;;;24.31;37.54;100012.94;4860711;29;20065;-42
2023/09/10 05:41:46;;;;;;;4.38;2.38;;;;;;;24.64;37.01;100015.03;4860631;29;20045;-39
2023/09/10 05:44:12;;;;;;;5.57;2.78;;;;;;;24.90;36.92;100010.06;4860488;29;20100;-39
2023/09/10 05:46:37;;;;;;;5.20;2.50;;;;;;;25.62;35.51;100018.03;4860410;29;20394;-40
2023/09/10 05:49:03;;;;;;;7.38;3.15;;;;;;;25.17;36.24;100020.34;4859512;29;20086;-40
2023/09/10 05:51:28;;;;;;;5.68;3.33;;;;;;;25.08;35.63;100017.44;4860416;29;20432;-40
2023/09/10 05:53:54;;;;;;;4.38;2.63;;;;;;;25.21;35.48;100015.91;4860275;29;20057;-40
2023/09/10 05:56:19;;;;;;;3.63;2.45;;;;;;;25.53;34.55;100014.34;4845365;29;20033;-40
2023/09/10 05:58:45;;;;;;;3.30;2.20;;;;;;;25.78;34.34;100024.06;4841996;29;20065;-40
2023/09/10 06:01:10;;;;;;;4.47;2.50;;;;;;;25.98;33.87;100017.47;4842129;29;20026;-41
2023/09/10 06:03:36;;;;;;;4.35;2.38;;;;;;;26.30;33.36;100027.50;4842097;29;20029;-40
2023/09/10 06:06:01;;;;;;;4.35;2.50;;;;;;;26.27;33.46;100024.56;4841786;29;20037;-41
2023/09/10 06:08:29;;;;;;;4.43;2.70;;;;;;;26.56;33.15;100034.38;4857809;29;20671;-38
2023/09/10 06:10:55;;;;;;;4.05;2.42;;;;;;;26.86;32.30;100035.72;4859979;29;20446;-41
2023/09/10 06:13:20;;;;;;;4.05;2.55;;;;;;;26.32;33.14;100032.66;4859462;29;20029;-39
2023/09/10 06:15:45;;;;;;;3.63;2.30;;;;;;;26.25;33.66;100035.78;4859568;29;20025;-38
2023/09/10 06:18:11;;;;;;;6.82;2.45;;;;;;;26.48;33.28;100042.19;4848268;29;20030;-40
2023/09/10 06:20:36;;;;;;;3.17;2.20;;;;;;;26.78;32.48;100042.69;4857475;29;20140;-40
2023/09/10 06:23:02;;;;;;;3.20;2.10;;;;;;;26.70;33.00;100036.03;4859748;29;20065;-41
2023/09/10 06:25:27;;;;;;;3.42;2.35;;;;;;;26.96;32.83;100040.97;4859319;29;20029;-40
2023/09/10 06:27:53;;;;;;;5.80;2.47;;;;;;;27.34;32.44;100050.81;4859421;29;20054;-40
2023/09/10 06:30:18;;;;;;;3.42;2.05;;;;;;;27.67;31.60;100043.22;4859137;29;20029;-40
2023/09/10 06:32:44;;;;;;;3.47;2.10;;;;;;;28.13;31.14;100049.47;4859136;29;20379;-40
2023/09/10 06:35:09;;;;;;;2.78;2.10;;;;;;;28.69;30.13;100047.97;4859129;29;20033;-41
2023/09/10 06:37:34;;;;;;;3.60;2.13;;;;;;;29.26;29.22;100038.91;4853000;29;20094;-41
2023/09/10 06:40:00;;;;;;;5.05;2.63;;;;;;;28.66;29.79;100041.19;4855221;29;20550;-39
2023/09/10 06:42:25;;;;;;;4.07;1.92;;;;;;;28.07;30.24;100041.41;4854226;29;20123;-42
2023/09/10 06:44:51;;;;;;;3.33;1.85;;;;;;;28.16;30.12;100043.38;4850753;29;20085;-41
2023/09/10 06:47:16;;;;;;;5.00;2.60;;;;;;;27.75;30.31;100045.19;4848580;29;20085;-41
2023/09/10 06:49:41;;;;;;;3.42;2.50;;;;;;;27.91;29.97;100042.91;4849456;29;20098;-41
2023/09/10 06:52:08;;;;;;;3.85;2.30;;;;;;;28.12;29.85;100045.13;4848204;29;20096;-41
2023/09/10 06:54:34;;;;;;;4.25;2.30;;;;;;;29.01;28.93;100044.00;4855351;29;20033;-42
2023/09/10 06:57:00;;;;;;;5.50;2.13;;;;;;;29.67;28.13;100043.09;4858660;29;20029;-41
2023/09/10 06:59:26;;;;;;;4.60;2.10;;;;;;;29.55;28.66;100048.41;4858285;29;20060;-42
2023/09/10 07:01:52;;;;;;;3.05;2.30;;;;;;;29.34;28.69;100040.88;4858582;29;20037;-39
2023/09/10 07:04:20;;;;;;;4.95;2.15;;;;;;;29.72;27.90;100042.09;4858759;29;20096;-40
2023/09/10 07:06:47;;;;;;;2.70;1.88;;;;;;;29.67;27.91;100039.56;4858497;29;20030;-41
2023/09/10 07:09:16;;;;;;;4.53;2.10;;;;;;;29.89;27.64;100044.03;4858493;29;20180;-40
2023/09/10 07:11:42;;;;;;;3.95;2.03;;;;;;;29.86;27.36;100039.22;4855181;29;20065;-40
2023/09/10 07:14:08;;;;;;;2.92;2.30;;;;;;;30.15;27.64;100041.25;4858812;29;20037;-40
2023/09/10 07:16:34;;;;;;;3.60;2.20;;;;;;;30.52;27.16;100044.34;4857770;29;20038;-41
2023/09/10 07:19:00;;;;;;;2.10;1.88;;;;;;;30.68;26.43;100039.13;4855675;29;20038;-41
2023/09/10 07:21:25;;;;;;;3.75;2.38;;;;;;;31.73;25.81;100041.91;4856016;29;20216;-41
2023/09/10 07:23:51;;;;;;;2.95;1.80;;;;;;;31.29;25.15;100042.28;4859213;29;20056;-39
2023/09/10 07:26:16;;;;;;;5.00;1.98;;;;;;;30.98;25.88;100037.19;4858979;29;20026;-41
2023/09/10 07:28:41;;;;;;;3.17;2.00;;;;;;;31.12;26.14;100042.41;4859108;29;20462;-41
2023/09/10 07:31:07;;;;;;;2.50;2.17;;;;;;;31.02;26.08;100038.13;4858826;29;20057;-41
2023/09/10 07:33:33;;;;;;;3.20;1.63;;;;;;;31.18;25.14;100043.81;4857885;29;20048;-43
2023/09/10 07:35:58;;;;;;;2.38;2.00;;;;;;;31.11;24.76;100036.13;4857152;29;20463;-41
2023/09/10 07:38:24;;;;;;;2.35;1.80;;;;;;;31.17;25.06;100042.22;4857270;29;20026;-40
2023/09/10 07:40:49;;;;;;;2.95;1.75;;;;;;;31.24;24.77;100036.19;4858735;29;20033;-40
2023/09/10 07:43:15;;;;;;;2.92;2.00;;;;;;;31.17;24.53;100036.72;4858818;29;20132;-43
2023/09/10 07:45:40;;;;;;;3.80;2.22;;;;;;;30.66;25.26;100036.69;4858213;29;20032;-42
2023/09/10 07:48:06;;;;;;;3.72;2.10;;;;;;;31.03;24.92;100036.97;4858580;29;20455;-40
2023/09/10 07:50:31;;;;;;;2.17;1.70;;;;;;;31.08;24.39;100038.72;4858594;29;20113;-40
2023/09/10 07:52:57;;;;;;;4.07;1.73;;;;;;;31.11;23.89;100041.63;4857877;29;20034;-41
2023/09/10 07:55:23;;;;;;;2.70;1.92;;;;;;;31.03;24.94;100036.16;4858378;29;20026;-40
2023/09/10 07:57:49;;;;;;;2.95;2.00;;;;;;;31.32;24.64;100038.88;4858597;29;20033;-40
2023/09/10 08:00:15;;;;;;;3.38;2.30;;;;;;;31.65;24.06;100034.56;4858286;29;20534;-41
2023/09/10 08:02:40;;;;;;;3.28;2.50;;;;;;;31.84;23.29;100028.56;4858918;29;20066;-41
2023/09/10 08:05:06;;;;;;;2.90;2.00;;;;;;;32.09;22.49;100029.44;4858691;29;20025;-41
2023/09/10 08:07:32;;;;;;;2.50;1.75;;;;;;;31.95;22.87;100025.03;4858657;29;20030;-41
2023/09/10 08:09:57;;;;;;;2.80;2.00;;;;;;;31.92;23.99;100028.44;4858803;29;20081;-42
2023/09/10 08:12:23;;;;;;;13.05;8.45;;;;;;;32.02;24.04;100024.47;4858511;29;20573;-42
2023/09/10 08:14:48;;;;;;;4.53;2.22;;;;;;;32.21;23.34;100029.44;4858816;29;20062;-44
2023/09/10 08:17:14;;;;;;;4.80;2.10;;;;;;;32.28;23.48;100021.41;4858385;29;20394;-41
2023/09/10 08:19:39;;;;;;;2.88;1.90;;;;;;;32.19;23.43;100025.44;4858607;29;20466;-40
2023/09/10 08:22:04;;;;;;;4.07;1.92;;;;;;;32.39;23.55;100020.97;4858568;29;20026;-41
2023/09/10 08:24:30;;;;;;;2.40;1.70;;;;;;;32.39;23.49;100026.50;4858506;29;20145;-43
2023/09/10 08:26:57;;;;;;;3.72;2.10;;;;;;;32.43;22.42;100028.19;4858536;29;20062;-40
2023/09/10 08:29:23;;;;;;;3.47;2.33;;;;;;;32.66;22.21;100033.28;4858498;29;20117;-42
2023/09/10 08:31:48;;;;;;;3.88;2.20;;;;;;;32.23;23.04;100021.63;4858399;29;20104;-40
2023/09/10 08:34:13;;;;;;;4.38;2.10;;;;;;;32.38;23.19;100022.91;4858724;29;20461;-41
2023/09/10 08:36:39;;;;;;;4.18;2.10;;;;;;;32.48;23.33;100021.66;4858488;29;20033;-41
2023/09/10 08:39:04;;;;;;;2.63;2.00;;;;;;;32.30;22.81;100018.34;4858304;29;20048;-41
2023/09/10 08:41:46;;;;;;;3.25;2.30;;;;;;;31.51;23.51;99997.16;4858874;29;20459;-41
2023/09/10 08:44:17;;;;;;;3.45;2.20;;;;;;;31.52;22.66;100015.25;4861855;29;20029;-42
2023/09/10 08:46:44;;;;;;;3.70;1.98;;;;;;;31.48;23.30;100011.56;4861767;29;20076;-40
2023/09/10 08:49:13;;;;;;;3.53;2.25;;;;;;;31.30;23.39;100015.59;4861670;29;20026;-41
2023/09/10 08:51:39;;;;;;;4.18;2.40;;;;;;;31.25;23.47;100000.13;4861630;29;20025;-41
2023/09/10 08:54:07;;;;;;;4.13;2.20;;;;;;;31.50;23.67;100009.28;4861694;29;20033;-41
2023/09/10 08:56:33;;;;;;;3.35;2.40;;;;;;;31.36;24.48;100011.50;4861713;29;20025;-40
2023/09/10 08:59:01;;;;;;;3.78;2.20;;;;;;;31.37;23.65;100002.91;4861377;29;20501;-42
2023/09/10 09:01:26;;;;;;;3.13;2.25;;;;;;;31.35;24.02;99996.94;4861169;29;20033;-42
2023/09/10 09:03:52;;;;;;;3.17;2.40;;;;;;;31.14;24.58;99999.72;4861718;29;20481;-41
2023/09/10 09:06:17;;;;;;;3.97;2.40;;;;;;;31.13;24.95;99997.28;4861460;29;20037;-41
2023/09/10 09:08:48;;;;;;;2.95;2.25;;;;;;;31.07;24.03;99979.41;4861702;29;20028;-40
2023/09/10 09:11:15;;;;;;;2.97;2.30;;;;;;;30.89;25.16;99987.75;4861618;29;20445;-41
2023/09/10 09:13:49;;;;;;;4.30;2.42;;;;;;;31.16;24.87;99994.69;4860569;29;20108;-43
2023/09/10 09:16:15;;;;;;;4.57;3.55;;;;;;;31.24;25.60;99978.47;4861034;29;20025;-41
2023/09/10 09:18:42;;;;;;;6.20;4.07;;;;;;;31.08;24.88;99992.81;4847024;29;20048;-40
2023/09/10 09:21:21;;;;;;;3.42;2.53;;;;;;;31.13;25.44;99991.78;4842464;29;20440;-41
2023/09/10 09:23:59;;;;;;;;;;;;;;;30.65;25.67;99988.38;4843658;29;20021;-40
2023/09/10 09:26:27;;;;;;;4.22;2.60;;;;;;;29.72;26.32;99982.63;4860826;29;19919;-42
2023/09/10 09:28:55;;;;;;;3.88;2.88;;;;;;;29.86;26.79;99982.44;4860878;29;20025;-41
2023/09/10 09:31:24;;;;;;;4.10;2.60;;;;;;;29.63;26.60;99979.06;4861160;29;20035;-41
2023/09/10 09:33:49;;;;;;;;;;;;;;;30.29;26.82;99973.25;4861291;29;20113;-42
2023/09/10 09:36:15;;;;;;;6.05;2.67;;;;;;;30.54;25.99;99977.00;4860930;29;19912;-40
2023/09/10 09:38:42;;;;;;;4.18;2.45;;;;;;;30.86;25.58;99965.63;4861046;29;20033;-40
2023/09/10 09:41:08;;;;;;;4.10;2.40;;;;;;;31.14;25.71;99972.22;4860569;29;20112;-41
2023/09/10 09:43:34;;;;;;;3.38;2.45;;;;;;;31.39;25.13;99966.84;4860462;29;20108;-41
2023/09/10 09:46:01;;;;;;;4.70;3.13;;;;;;;31.03;25.40;99972.97;4860534;29;20052;-41
2023/09/10 09:48:26;;;;;;;6.93;3.00;;;;;;;30.68;26.26;99964.97;4860440;29;20029;-40
2023/09/10 09:50:52;;;;;;;4.78;2.90;;;;;;;30.94;25.15;99953.84;4860570;29;20096;-40
2023/09/10 09:53:17;;;;;;;5.78;3.17;;;;;;;31.09;25.46;99961.47;4859391;29;20211;-42
2023/09/10 09:55:44;;;;;;;5.32;3.20;;;;;;;30.86;26.12;99958.19;4860478;29;20343;-42
2023/09/10 09:58:11;;;;;;;4.70;3.00;;;;;;;31.19;25.36;99965.75;4860526;29;20036;-41
2023/09/10 10:00:37;;;;;;;5.00;2.78;;;;;;;31.09;26.31;99955.97;4860385;29;20089;-40
2023/09/10 10:03:04;;;;;;;3.53;2.55;;;;;;;30.40;26.15;99965.44;4860503;29;20033;-40
2023/09/10 10:05:32;;;;;;;4.75;2.60;;;;;;;29.99;26.46;99964.16;4860337;29;20073;-39
2023/09/10 10:07:58;;;;;;;4.45;2.70;;;;;;;30.39;26.28;99959.16;4860267;29;20526;-40
2023/09/10 10:10:24;;;;;;;6.60;2.75;;;;;;;30.56;26.00;99952.75;4859824;29;20104;-41
2023/09/10 10:12:51;;;;;;;4.07;2.80;;;;;;;30.76;25.54;99953.91;4860641;29;20121;-41
2023/09/10 10:15:17;;;;;;;5.10;2.55;;;;;;;30.77;25.66;99946.50;4860214;29;20025;-42
2023/09/10 10:17:44;;;;;;;3.72;2.70;;;;;;;30.98;25.59;99950.06;4859932;29;20175;-41
2023/09/10 10:20:11;;;;;;;6.03;2.58;;;;;;;30.87;25.64;99945.28;4859893;29;20025;-41
2023/09/10 10:22:36;;;;;;;3.17;2.65;;;;;;;30.59;25.62;99940.31;4857899;29;20113;-41
2023/09/10 10:25:04;;;;;;;4.70;3.38;;;;;;;30.01;26.52;99945.44;4859441;29;20501;-40
2023/09/10 10:27:33;;;;;;;8.95;3.00;;;;;;;30.54;25.88;99940.47;4860236;29;20041;-41
2023/09/10 10:29:59;;;;;;;3.83;2.65;;;;;;;30.82;25.27;99940.78;4860057;29;20040;-41
2023/09/10 10:32:39;;;;;;;13.27;8.50;;;;;;;30.94;25.95;99934.59;4859882;29;20026;-39
2023/09/10 10:35:09;;;;;;;4.28;2.63;;;;;;;31.31;25.64;99938.28;4859929;29;20100;-40
2023/09/10 10:37:58;;;;;;;4.25;2.72;;;;;;;31.34;25.55;99934.06;4859894;29;20032;-42
2023/09/10 10:40:38;;;;;;;3.97;2.60;;;;;;;30.96;25.22;99935.06;4859925;29;20039;-41
2023/09/10 10:43:19;;;;;;;6.47;3.00;;;;;;;30.68;25.75;99929.28;4859227;29;20464;-41
2023/09/10 10:45:47;;;;;;;3.78;2.60;;;;;;;30.28;26.19;99913.19;4859352;29;20029;-41
2023/09/10 10:48:26;;;;;;;3.60;2.30;;;;;;;30.35;26.39;99922.53;4859581;29;20114;-42
2023/09/10 10:50:53;;;;;;;5.28;3.72;;;;;;;30.45;26.57;99926.03;4859378;29;20033;-40
2023/09/10 10:53:23;;;;;;;4.72;3.15;;;;;;;30.67;25.66;99917.47;4859492;29;20037;-40
2023/09/10 10:55:52;;;;;;;5.03;2.50;;;;;;;30.27;26.39;99930.78;4859347;29;20026;-44
2023/09/10 10:58:20;;;;;;;3.80;2.33;;;;;;;30.30;26.13;99922.69;4859028;29;20041;-43
2023/09/10 11:00:55;;;;;;;3.60;2.50;;;;;;;30.68;25.72;99910.84;4859508;29;20045;-42
2023/09/10 11:03:21;;;;;;;5.65;2.90;;;;;;;30.80;25.20;99908.16;4859246;29;20060;-41
2023/09/10 11:06:07;;;;;;;4.53;3.08;;;;;;;30.82;25.59;99893.28;4858997;29;20057;-41
2023/09/10 11:08:48;;;;;;;4.97;3.17;;;;;;;30.89;25.72;99896.31;4859207;29;20118;-39
2023/09/10 11:11:37;;;;;;;4.18;2.78;;;;;;;30.69;25.92;99892.41;4859228;29;20032;-40
2023/09/10 11:14:08;;;;;;;3.58;2.72;;;;;;;30.45;25.98;99896.63;4859030;29;20096;-41
2023/09/10 11:16:34;;;;;;;5.50;2.80;;;;;;;30.39;26.25;99896.03;4859308;29;20029;-43
2023/09/10 11:19:01;;;;;;;3.80;2.53;;;;;;;30.43;25.70;99890.69;4842276;29;20061;-42
2023/09/10 11:21:54;;;;;;;4.22;2.78;;;;;;;29.87;26.58;99885.28;4840475;29;20037;-40
2023/09/10 11:24:19;;;;;;;5.10;2.30;;;;;;;30.54;25.55;99878.16;4840596;29;20365;-40
2023/09/10 11:26:45;;;;;;;3.53;2.50;;;;;;;30.77;25.12;99867.66;4840699;29;20053;-41
2023/09/10 11:29:16;;;;;;;10.57;2.67;;;;;;;30.55;25.23;99863.28;4840906;29;20029;-41